Sedgewickville, Missouri
Current Conditions -  °F | °C
As of 2:53 PM on Tuesday 27 Jan 2015 (Local Time) from KCGI Reporting Station
Scattered Clouds Scattered Clouds  
Wind Chill: 41°   Ceiling: Unl
Heat Index: 47°   Visibility: 10mi
Dew Point: 33°   Wind: 14mph
Humidity: 59%   Direction: 10°N
Pressure: 30.15"   Gusts: NA
Location:  37.52°N, 89.91°W
Report Text: KCGI 272053Z 01012KT 10SM SCT035 08/01 A3015 RMK AO2 SLP210 T00830006 55001
Loading
Personal Weather Stations






























Interactive Weather Map New forecast layout! Learn more

10-Day Weather Forecast

Advertisements
Track Severe Weather on mobile